Time;durP1;ratioP1;P1;durP2;ratioP2;P2;SDS_P1;SDS_P2;PMS_P1;PMS_P2;Temp;Humidity;BMP_temperature;BMP_pressure;BME280_temperature;BME280_humidity;BME280_pressure;Samples;Min_cycle;Max_cycle;Signal;HPM_P1;HPM_P2
2023/06/23 04:31:36;;;;;;;14.80;6.25;;;18.50;74.40;;;;;;5366739;23;20047;-82
2023/06/23 04:34:02;;;;;;;14.48;6.63;;;18.50;74.50;;;;;;4945444;29;20038;-82
2023/06/23 04:36:45;;;;;;;15.13;7.10;;;18.60;74.20;;;;;;4936174;29;20031;-82
2023/06/23 04:39:31;;;;;;;;;;;18.60;74.30;;;;;;4954769;29;20529;-82
2023/06/23 04:42:04;;;;;;;16.17;6.45;;;18.60;74.30;;;;;;4936879;29;20005;-83
2023/06/23 04:44:34;;;;;;;14.65;6.15;;;18.60;74.30;;;;;;4933544;29;20079;-82
2023/06/23 04:47:02;;;;;;;15.02;6.30;;;18.60;74.30;;;;;;4934981;29;20058;-85
2023/06/23 04:49:31;;;;;;;13.82;6.65;;;18.60;73.60;;;;;;4950512;29;20063;-82
2023/06/23 04:52:02;;;;;;;14.30;6.57;;;18.70;74.30;;;;;;4953984;29;20039;-84
2023/06/23 04:54:39;;;;;;;16.45;6.50;;;18.70;74.00;;;;;;4954219;29;20027;-85
2023/06/23 04:57:09;;;;;;;13.52;6.03;;;18.70;74.10;;;;;;4936086;29;20190;-83
2023/06/23 04:59:39;;;;;;;14.88;7.00;;;18.70;73.80;;;;;;4952808;29;20046;-84
2023/06/23 05:02:06;;;;;;;14.80;6.22;;;18.70;73.80;;;;;;4948749;28;20028;-81
2023/06/23 05:04:34;;;;;;;13.98;6.07;;;18.80;73.80;;;;;;4949007;29;20115;-85
2023/06/23 05:07:02;;;;;;;15.63;6.93;;;18.80;73.80;;;;;;4957301;29;20085;-86
2023/06/23 05:09:30;;;;;;;15.00;5.97;;;18.80;73.80;;;;;;4940020;29;20031;-86
2023/06/23 05:11:58;;;;;;;13.40;6.50;;;18.80;73.60;;;;;;4957468;29;20027;-86
2023/06/23 05:14:26;;;;;;;16.35;6.35;;;18.80;74.00;;;;;;4956721;29;20046;-87
2023/06/23 05:16:55;;;;;;;14.85;6.43;;;18.80;73.80;;;;;;4939909;29;20027;-87
2023/06/23 05:19:23;;;;;;;14.82;5.97;;;18.80;73.90;;;;;;4952538;29;20023;-89
2023/06/23 05:21:53;;;;;;;15.10;6.07;;;18.80;73.50;;;;;;4938403;29;20106;-89
2023/06/23 05:24:19;;;;;;;14.52;6.03;;;18.80;73.70;;;;;;4936895;29;20028;-88
2023/06/23 05:26:47;;;;;;;12.82;5.68;;;18.80;73.50;;;;;;4953935;29;20031;-88
2023/06/23 05:29:17;;;;;;;12.57;5.70;;;18.80;73.90;;;;;;4956785;29;20034;-85
2023/06/23 05:31:44;;;;;;;12.82;6.03;;;18.80;73.80;;;;;;4945199;29;20471;-87
2023/06/23 05:34:14;;;;;;;13.30;5.75;;;18.80;74.00;;;;;;4940433;29;20038;-89
2023/06/23 05:36:41;;;;;;;10.07;5.03;;;18.80;73.90;;;;;;4961370;29;20429;-83
2023/06/23 05:39:08;;;;;;;12.23;5.50;;;18.90;73.30;;;;;;4961092;29;20059;-91
2023/06/23 05:41:34;;;;;;;13.82;5.68;;;18.90;73.20;;;;;;4932509;29;20031;-89
2023/06/23 05:44:00;;;;;;;12.73;5.28;;;19.00;73.00;;;;;;4941963;29;20040;-90
2023/06/23 05:46:28;;;;;;;13.50;6.22;;;19.10;73.00;;;;;;4925567;29;20028;-89
2023/06/23 05:49:05;;;;;;;15.43;6.45;;;19.10;72.70;;;;;;4936161;29;20061;-89
2023/06/23 05:51:33;;;;;;;13.15;5.75;;;19.10;72.60;;;;;;4940921;29;20166;-89
2023/06/23 05:54:04;;;;;;;10.93;4.93;;;19.20;72.50;;;;;;4924857;29;20032;-90
2023/06/23 05:56:36;;;;;;;12.63;4.85;;;19.20;72.60;;;;;;4957582;29;20434;-90
2023/06/23 05:59:07;;;;;;;11.88;4.63;;;19.20;72.60;;;;;;4944452;29;20043;-90
2023/06/23 06:01:40;;;;;;;12.30;5.25;;;19.10;72.80;;;;;;4944023;29;20035;-90
2023/06/23 06:04:10;;;;;;;11.70;4.95;;;19.20;72.70;;;;;;4941984;29;20094;-90
2023/06/23 06:06:39;;;;;;;12.35;5.20;;;19.20;72.50;;;;;;4961442;29;20592;-91
2023/06/23 06:09:09;;;;;;;12.75;5.35;;;19.20;73.00;;;;;;4943703;29;20038;-90
2023/06/23 06:11:37;;;;;;;11.45;4.95;;;19.30;72.60;;;;;;4955640;29;20094;-90
2023/06/23 06:14:07;;;;;;;12.30;4.88;;;19.30;72.10;;;;;;4931504;29;20745;-89
2023/06/23 06:16:35;;;;;;;11.80;5.32;;;19.40;72.60;;;;;;4925024;29;20035;-89
2023/06/23 06:19:02;;;;;;;10.38;4.90;;;19.30;72.80;;;;;;4924790;29;20024;-91
2023/06/23 06:21:30;;;;;;;12.25;4.55;;;19.40;72.30;;;;;;4949894;29;20037;-90
2023/06/23 06:23:57;;;;;;;11.18;5.03;;;19.50;72.40;;;;;;4938611;29;20027;-90
2023/06/23 06:26:24;;;;;;;11.52;5.35;;;19.60;71.70;;;;;;4958649;29;20027;-90
2023/06/23 06:28:52;;;;;;;12.43;5.22;;;19.70;72.00;;;;;;4960782;29;20031;-90
2023/06/23 06:31:20;;;;;;;11.23;4.93;;;19.70;71.50;;;;;;4953109;29;20131;-90
2023/06/23 06:33:48;;;;;;;13.35;5.78;;;19.80;70.90;;;;;;4936512;29;20024;-90
2023/06/23 06:36:15;;;;;;;12.60;5.18;;;19.80;70.90;;;;;;4950610;29;20141;-90
2023/06/23 06:38:42;;;;;;;13.18;5.25;;;19.80;70.70;;;;;;4960065;29;20502;-89
2023/06/23 06:41:08;;;;;;;9.80;5.03;;;19.90;70.60;;;;;;4928511;29;20390;-90
2023/06/23 06:43:34;;;;;;;10.82;4.53;;;20.10;70.00;;;;;;4936596;29;20031;-91
2023/06/23 06:46:01;;;;;;;12.88;5.35;;;20.00;70.50;;;;;;4939640;29;20040;-90
2023/06/23 06:48:29;;;;;;;11.82;5.25;;;20.10;70.50;;;;;;4929117;29;20039;-90
2023/06/23 06:50:56;;;;;;;11.15;5.13;;;20.20;70.30;;;;;;4948955;29;20042;-88
2023/06/23 06:53:24;;;;;;;9.40;4.63;;;20.30;69.90;;;;;;4932588;29;20038;-88
2023/06/23 06:55:50;;;;;;;11.13;4.68;;;20.50;69.10;;;;;;4941078;29;20114;-90
2023/06/23 06:58:16;;;;;;;9.75;4.88;;;20.70;68.50;;;;;;4949311;29;20099;-90
2023/06/23 07:00:43;;;;;;;9.52;4.75;;;20.80;68.10;;;;;;4940666;29;20027;-89
2023/06/23 07:03:11;;;;;;;11.30;4.63;;;20.80;68.00;;;;;;4930700;29;20027;-90
2023/06/23 07:05:36;;;;;;;9.65;4.85;;;20.90;67.60;;;;;;4945263;29;20030;-89
2023/06/23 07:08:03;;;;;;;11.20;5.03;;;21.00;67.30;;;;;;4945020;29;20495;-89
2023/06/23 07:10:29;;;;;;;8.98;4.10;;;21.20;66.80;;;;;;4946040;29;20028;-89
2023/06/23 07:12:55;;;;;;;10.45;4.95;;;21.50;66.20;;;;;;4934512;29;20181;-89
2023/06/23 07:15:20;;;;;;;8.30;4.18;;;21.80;65.80;;;;;;4939662;29;20079;-88
2023/06/23 07:17:46;;;;;;;6.43;3.67;;;21.80;64.60;;;;;;4941373;29;20027;-85
2023/06/23 07:20:12;;;;;;;10.05;4.25;;;21.80;64.90;;;;;;4941626;29;20078;-88
2023/06/23 07:22:37;;;;;;;7.85;4.00;;;21.70;64.50;;;;;;4940166;29;20054;-86
2023/06/23 07:25:03;;;;;;;9.43;4.63;;;21.40;64.90;;;;;;4940079;29;20051;-85
2023/06/23 07:27:29;;;;;;;8.90;4.93;;;21.40;65.30;;;;;;4931082;29;20039;-82
2023/06/23 07:29:55;;;;;;;7.65;4.35;;;21.40;65.60;;;;;;4958498;29;20035;-86
2023/06/23 07:32:20;;;;;;;8.80;4.30;;;21.30;65.20;;;;;;4928626;29;20055;-86
2023/06/23 07:34:46;;;;;;;7.85;4.32;;;21.40;64.80;;;;;;4951539;29;20522;-81
2023/06/23 07:37:12;;;;;;;6.80;3.97;;;21.70;64.60;;;;;;4922938;29;20032;-85
2023/06/23 07:39:38;;;;;;;8.35;4.20;;;22.00;64.20;;;;;;4922379;29;20517;-84
2023/06/23 07:42:04;;;;;;;8.68;4.35;;;22.20;63.00;;;;;;4941574;29;20035;-87
2023/06/23 07:44:31;;;;;;;7.88;4.35;;;22.50;63.10;;;;;;4949262;29;20397;-87
2023/06/23 07:46:58;;;;;;;7.18;4.53;;;23.00;61.60;;;;;;4936788;29;20102;-87
2023/06/23 07:49:23;;;;;;;9.10;4.97;;;23.80;58.90;;;;;;4947223;29;20027;-87
2023/06/23 07:51:49;;;;;;;8.18;4.85;;;24.80;56.60;;;;;;4950659;29;20447;-88
2023/06/23 07:54:15;;;;;;;7.50;4.30;;;25.90;54.10;;;;;;4949724;28;20031;-88
2023/06/23 07:56:40;;;;;;;7.28;4.38;;;27.10;50.70;;;;;;4948641;29;20046;-87
2023/06/23 07:59:06;;;;;;;8.20;4.07;;;28.10;48.80;;;;;;4948263;29;20034;-87
2023/06/23 08:01:32;;;;;;;5.85;4.00;;;29.20;46.00;;;;;;4952952;29;20031;-87
2023/06/23 08:03:58;;;;;;;6.65;4.25;;;29.90;44.30;;;;;;4934972;29;20103;-88
2023/06/23 08:06:24;;;;;;;6.57;3.88;;;30.00;43.50;;;;;;4950160;29;20094;-90
2023/06/23 08:08:55;;;;;;;6.20;3.85;;;29.60;44.00;;;;;;4945771;29;20501;-90
2023/06/23 08:11:21;;;;;;;5.30;3.70;;;30.00;42.60;;;;;;4933301;29;20528;-90
2023/06/23 08:13:48;;;;;;;5.43;3.97;;;30.90;42.20;;;;;;4958409;29;20027;-90
2023/06/23 08:16:14;;;;;;;5.57;4.07;;;31.70;40.10;;;;;;4946990;29;20071;-91
2023/06/23 08:18:40;;;;;;;5.93;4.47;;;32.30;38.80;;;;;;4954531;29;20079;-90
2023/06/23 08:21:06;;;;;;;5.25;3.88;;;32.40;37.60;;;;;;4950893;29;20039;-91
2023/06/23 08:23:32;;;;;;;5.50;4.07;;;32.90;37.80;;;;;;4940103;29;20038;-88
2023/06/23 08:25:57;;;;;;;5.18;3.70;;;33.70;36.80;;;;;;4929860;29;20110;-89
2023/06/23 08:28:23;;;;;;;5.05;3.67;;;33.90;36.40;;;;;;4936344;29;20507;-91
2023/06/23 08:30:49;;;;;;;4.50;3.70;;;34.30;34.70;;;;;;4943769;29;20438;-89
2023/06/23 08:33:14;;;;;;;4.65;3.38;;;34.40;35.60;;;;;;4948672;29;20035;-90
2023/06/23 08:35:40;;;;;;;4.28;3.60;;;34.80;35.30;;;;;;4932928;29;20640;-87
2023/06/23 08:38:06;;;;;;;5.00;3.72;;;34.80;34.60;;;;;;4933895;29;20042;-91
2023/06/23 08:40:32;;;;;;;5.18;3.90;;;34.80;34.70;;;;;;4929693;29;20036;-85
2023/06/23 08:42:59;;;;;;;5.40;3.90;;;34.80;34.10;;;;;;4953171;29;20023;-90
2023/06/23 08:45:26;;;;;;;4.88;3.97;;;34.80;34.40;;;;;;4957524;29;20291;-89
2023/06/23 08:47:57;;;;;;;4.95;3.53;;;34.70;34.70;;;;;;4955711;29;20455;-85
2023/06/23 08:50:22;;;;;;;4.50;3.33;;;34.70;34.70;;;;;;4940071;29;20402;-87
2023/06/23 08:52:50;;;;;;;4.55;3.55;;;35.20;34.20;;;;;;4940891;29;20031;-87
2023/06/23 08:55:16;;;;;;;4.82;3.35;;;35.50;34.10;;;;;;4952827;29;20066;-84
2023/06/23 08:57:42;;;;;;;4.35;3.38;;;35.00;33.40;;;;;;4945648;29;20023;-91
2023/06/23 09:00:08;;;;;;;5.25;3.65;;;34.40;34.40;;;;;;4921626;29;20024;-89
2023/06/23 09:02:41;;;;;;;4.43;3.35;;;34.80;34.30;;;;;;4927654;29;20585;-89
2023/06/23 09:05:07;;;;;;;3.97;3.58;;;35.40;33.20;;;;;;4947335;29;20024;-85
2023/06/23 09:07:34;;;;;;;4.85;3.35;;;36.00;32.10;;;;;;4935373;29;20031;-87
2023/06/23 09:10:00;;;;;;;4.57;3.78;;;36.30;32.60;;;;;;4928070;29;20050;-87
2023/06/23 09:12:26;;;;;;;4.50;3.38;;;36.60;31.90;;;;;;4940531;29;20482;-89
2023/06/23 09:14:52;;;;;;;5.55;3.70;;;36.80;31.40;;;;;;4940489;29;20469;-88
2023/06/23 09:17:22;;;;;;;4.60;3.20;;;36.90;31.70;;;;;;4926692;29;20039;-87
2023/06/23 09:19:49;;;;;;;4.15;3.25;;;37.30;31.10;;;;;;4938595;29;20030;-89
2023/06/23 09:22:19;;;;;;;4.55;3.22;;;37.30;29.70;;;;;;4936933;29;20167;-89
2023/06/23 09:24:46;;;;;;;4.05;3.50;;;37.70;30.80;;;;;;4937943;29;20056;-82
2023/06/23 09:27:12;;;;;;;4.28;3.13;;;37.60;30.00;;;;;;4932588;29;20039;-88
2023/06/23 09:29:38;;;;;;;4.32;3.35;;;37.80;28.10;;;;;;4957571;29;20434;-88
2023/06/23 09:32:04;;;;;;;4.60;3.20;;;38.00;29.70;;;;;;4937100;29;20059;-86
2023/06/23 09:34:47;;;;;;;3.90;3.10;;;38.00;29.50;;;;;;4956206;29;20035;-90
2023/06/23 09:37:35;;;;;;;3.45;2.85;;;38.20;28.60;;;;;;4946242;29;20031;-89
2023/06/23 09:40:06;;;;;;;2.97;2.45;;;38.30;27.50;;;;;;4936253;29;20115;-87
2023/06/23 09:42:32;;;;;;;4.07;2.80;;;38.00;28.20;;;;;;4920993;29;20092;-86
2023/06/23 09:44:58;;;;;;;3.97;2.95;;;38.30;28.50;;;;;;4940585;29;20053;-83
2023/06/23 09:47:23;;;;;;;3.42;2.65;;;38.40;27.80;;;;;;4940434;29;20036;-85
2023/06/23 09:49:49;;;;;;;4.07;2.72;;;38.60;27.50;;;;;;4950633;29;20172;-80
2023/06/23 09:52:24;;;;;;;3.17;2.53;;;38.70;28.00;;;;;;4946354;29;20039;-82
2023/06/23 09:54:49;;;;;;;3.78;2.70;;;39.00;27.40;;;;;;4936612;29;20424;-86
2023/06/23 09:57:17;;;;;;;3.17;2.60;;;38.90;27.80;;;;;;4939605;29;20027;-81
2023/06/23 09:59:44;;;;;;;4.20;2.85;;;38.90;26.70;;;;;;4940999;29;20088;-82
2023/06/23 10:02:20;;;;;;;4.10;3.13;;;38.60;27.20;;;;;;4937991;29;20080;-79
2023/06/23 10:04:56;;;;;;;3.35;2.70;;;38.00;27.90;;;;;;4933074;29;20103;-85
2023/06/23 10:07:24;;;;;;;3.85;2.65;;;37.60;29.40;;;;;;4952409;29;20028;-88
2023/06/23 10:09:52;;;;;;;4.55;2.97;;;37.60;29.20;;;;;;4940367;29;20063;-85
2023/06/23 10:12:22;;;;;;;3.35;2.60;;;37.80;27.20;;;;;;4936660;29;20513;-84
2023/06/23 10:14:49;;;;;;;;;;;38.00;27.60;;;;;;4938482;29;20038;-86
2023/06/23 10:17:15;;;;;;;4.60;2.60;;;38.00;27.40;;;;;;4936010;28;19915;-85
2023/06/23 10:19:42;;;;;;;2.92;2.60;;;38.00;27.60;;;;;;4948159;29;20042;-85
2023/06/23 10:22:10;;;;;;;3.67;2.75;;;38.00;28.60;;;;;;4943403;29;20027;-91
2023/06/23 10:24:37;;;;;;;4.00;2.85;;;37.80;27.70;;;;;;4954351;29;20035;-87
2023/06/23 10:27:05;;;;;;;4.38;2.72;;;37.60;28.10;;;;;;4947263;29;20820;-85
2023/06/23 10:29:32;;;;;;;3.42;2.75;;;37.30;27.70;;;;;;4947979;29;20028;-91
2023/06/23 10:32:00;;;;;;;4.65;2.72;;;37.00;29.50;;;;;;4930845;29;20135;-90
2023/06/23 10:34:28;;;;;;;4.03;2.30;;;37.00;28.90;;;;;;4957406;29;20110;-85
2023/06/23 10:36:56;;;;;;;3.10;2.30;;;36.90;30.00;;;;;;4942923;29;20070;-88
2023/06/23 10:39:26;;;;;;;3.35;2.10;;;36.60;29.50;;;;;;4956050;29;20032;-80
2023/06/23 10:41:53;;;;;;;3.15;1.88;;;35.90;30.10;;;;;;4960069;29;20379;-80
2023/06/23 10:44:19;;;;;;;4.10;2.70;;;35.30;31.50;;;;;;4957980;29;20019;-80
2023/06/23 10:46:46;;;;;;;3.90;2.22;;;34.80;32.90;;;;;;4960044;29;20046;-81
2023/06/23 10:49:13;;;;;;;4.78;2.40;;;34.30;33.60;;;;;;4959429;29;20486;-79
2023/06/23 10:51:40;;;;;;;3.83;2.00;;;33.80;33.90;;;;;;4942857;29;20099;-79
2023/06/23 10:54:07;;;;;;;3.35;2.13;;;33.40;34.40;;;;;;4960042;29;20023;-78
2023/06/23 10:56:33;;;;;;;4.03;2.25;;;33.20;36.00;;;;;;4959705;29;20065;-78
2023/06/23 10:58:59;;;;;;;4.32;2.70;;;32.90;36.10;;;;;;4941589;29;20027;-81
2023/06/23 11:01:26;;;;;;;3.67;2.35;;;32.60;36.50;;;;;;4959787;29;20038;-84
2023/06/23 11:03:55;;;;;;;4.63;2.70;;;32.10;35.60;;;;;;4949390;28;20071;-84
2023/06/23 11:06:29;;;;;;;3.90;2.05;;;31.90;38.30;;;;;;4956766;29;20038;-82
2023/06/23 11:08:56;;;;;;;4.45;2.38;;;31.90;37.80;;;;;;4950867;29;20060;-86
2023/06/23 11:11:33;;;;;;;4.75;2.72;;;31.70;37.20;;;;;;4959639;29;20031;-88
2023/06/23 11:13:59;;;;;;;5.40;2.45;;;31.20;38.00;;;;;;4948407;29;20088;-80
2023/06/23 11:16:34;;;;;;;4.95;2.75;;;31.10;38.80;;;;;;4940870;29;20088;-82
2023/06/23 11:19:02;;;;;;;5.43;2.58;;;31.00;38.80;;;;;;4939215;29;20398;-83
2023/06/23 11:21:37;;;;;;;3.88;2.13;;;30.90;39.30;;;;;;4942214;29;20023;-81
2023/06/23 11:24:20;;;;;;;4.20;2.50;;;30.90;40.30;;;;;;4933296;29;20045;-78
2023/06/23 11:26:49;;;;;;;;;;;30.80;39.70;;;;;;4951101;29;20123;-86
2023/06/23 11:29:18;;;;;;;3.40;2.20;;;30.50;40.40;;;;;;4932862;29;20014;-81
2023/06/23 11:32:14;;;;;;;3.72;2.25;;;30.40;40.40;;;;;;4941862;29;20509;-83
2023/06/23 11:34:57;;;;;;;4.13;2.40;;;30.40;39.90;;;;;;4961873;28;20143;-84
2023/06/23 11:37:42;;;;;;;5.32;2.20;;;30.10;42.10;;;;;;4939891;29;20028;-84
2023/06/23 11:40:11;;;;;;;4.30;2.40;;;30.10;40.30;;;;;;4940263;29;20034;-86
2023/06/23 11:42:43;;;;;;;3.90;2.45;;;30.00;39.10;;;;;;4955219;29;20023;-82
2023/06/23 11:45:11;;;;;;;;;;;30.10;40.80;;;;;;4950273;29;20046;-85
2023/06/23 11:47:37;;;;;;;3.92;2.20;;;30.10;39.50;;;;;;4938862;29;19922;-80
2023/06/23 11:50:03;;;;;;;4.53;2.45;;;30.20;40.00;;;;;;4948902;29;20410;-84
2023/06/23 11:52:32;;;;;;;4.00;2.30;;;30.00;38.90;;;;;;4948935;29;20024;-82
2023/06/23 11:55:00;;;;;;;4.28;2.40;;;30.10;38.50;;;;;;4936464;29;20035;-83
2023/06/23 11:57:26;;;;;;;3.65;2.30;;;30.20;40.20;;;;;;4949114;29;20023;-87
2023/06/23 11:59:52;;;;;;;4.07;2.25;;;30.30;39.70;;;;;;4946373;29;20503;-81
2023/06/23 12:02:20;;;;;;;3.63;2.17;;;30.30;39.20;;;;;;4943532;29;20062;-80
2023/06/23 12:04:48;;;;;;;4.15;2.30;;;30.30;38.00;;;;;;4922059;28;20034;-80
2023/06/23 12:07:14;;;;;;;3.60;2.17;;;30.30;38.90;;;;;;4954819;29;20824;-76
2023/06/23 12:09:39;;;;;;;3.90;2.33;;;30.30;38.60;;;;;;4940342;29;20027;-82
2023/06/23 12:12:06;;;;;;;5.72;2.40;;;30.20;38.20;;;;;;4929999;29;20046;-78
2023/06/23 12:14:33;;;;;;;4.47;2.28;;;30.10;38.50;;;;;;4933032;29;20064;-82
2023/06/23 12:17:07;;;;;;;3.70;2.00;;;30.20;38.90;;;;;;4946317;29;20548;-82
2023/06/23 12:19:33;;;;;;;3.60;2.20;;;30.20;39.90;;;;;;4951132;29;20113;-82
2023/06/23 12:22:00;;;;;;;3.83;2.20;;;30.20;37.70;;;;;;4943601;29;20047;-84
2023/06/23 12:24:28;;;;;;;4.72;2.13;;;30.30;39.30;;;;;;4942667;29;20020;-83
2023/06/23 12:26:54;;;;;;;5.45;2.50;;;30.30;37.50;;;;;;4925477;29;20027;-83
2023/06/23 12:29:21;;;;;;;5.28;2.08;;;30.30;38.30;;;;;;4942857;29;20039;-83
2023/06/23 12:31:58;;;;;;;4.68;2.30;;;30.20;37.80;;;;;;4938551;29;20241;-82
2023/06/23 12:34:35;;;;;;;4.22;1.98;;;30.20;37.70;;;;;;4920308;29;20513;-83
2023/06/23 12:37:08;;;;;;;3.78;2.10;;;30.20;38.10;;;;;;4917840;29;20118;-83
2023/06/23 12:39:36;;;;;;;3.40;1.90;;;30.20;38.00;;;;;;4920121;29;20024;-82
2023/06/23 12:42:02;;;;;;;4.88;2.10;;;30.30;37.20;;;;;;4934929;29;20027;-82
2023/06/23 12:44:30;;;;;;;4.05;1.80;;;30.30;38.30;;;;;;4935306;29;20486;-82
2023/06/23 12:46:57;;;;;;;4.20;2.22;;;30.10;38.20;;;;;;4937145;29;20040;-83
2023/06/23 12:49:33;;;;;;;5.22;2.78;;;30.00;37.20;;;;;;4935680;29;20027;-83
2023/06/23 12:52:00;;;;;;;3.55;2.03;;;29.90;37.50;;;;;;4937073;29;20035;-83
2023/06/23 12:54:27;;;;;;;4.72;2.63;;;30.00;38.00;;;;;;4936627;29;20490;-82
2023/06/23 12:56:59;;;;;;;3.38;2.08;;;30.10;37.30;;;;;;4931656;29;20069;-87
2023/06/23 12:59:26;;;;;;;;;;;29.90;37.40;;;;;;4936893;29;20051;-84
2023/06/23 13:01:52;;;;;;;3.88;1.98;;;29.90;37.60;;;;;;4937143;29;19937;-87
2023/06/23 13:04:17;;;;;;;4.25;2.10;;;30.00;37.30;;;;;;4937360;29;20031;-85
2023/06/23 13:06:43;;;;;;;3.53;1.77;;;29.80;36.80;;;;;;4920138;29;20028;-83
2023/06/23 13:09:09;;;;;;;3.28;1.83;;;29.90;37.20;;;;;;4927264;29;20047;-85
2023/06/23 13:11:35;;;;;;;3.53;1.77;;;30.00;36.90;;;;;;4933127;29;20099;-84
2023/06/23 13:14:01;;;;;;;3.50;1.83;;;30.10;36.70;;;;;;4925872;29;20099;-84
2023/06/23 13:16:29;;;;;;;3.13;1.70;;;30.20;36.60;;;;;;4936635;29;20032;-85
2023/06/23 13:18:55;;;;;;;3.47;1.92;;;30.10;37.90;;;;;;4917318;29;20032;-83
2023/06/23 13:21:20;;;;;;;3.72;1.98;;;30.10;35.90;;;;;;4945472;29;20442;-81
2023/06/23 13:23:46;;;;;;;3.75;1.98;;;29.90;36.40;;;;;;4942442;29;20055;-82
2023/06/23 13:26:12;;;;;;;3.72;2.00;;;29.90;36.50;;;;;;4938814;29;20037;-83
2023/06/23 13:28:37;;;;;;;4.40;1.75;;;29.80;36.90;;;;;;4932412;29;20036;-83
2023/06/23 13:31:03;;;;;;;4.38;2.03;;;29.90;37.30;;;;;;4936314;29;20447;-81
2023/06/23 13:33:29;;;;;;;3.20;1.80;;;29.90;35.20;;;;;;4935040;29;20028;-83
2023/06/23 13:35:55;;;;;;;4.55;1.98;;;29.90;35.40;;;;;;4934053;29;20016;-84
2023/06/23 13:38:20;;;;;;;3.50;2.00;;;29.90;38.50;;;;;;4933387;29;20042;-84
2023/06/23 13:40:46;;;;;;;3.78;1.60;;;29.90;37.10;;;;;;4935019;29;20031;-83
2023/06/23 13:43:12;;;;;;;3.55;1.75;;;29.90;36.20;;;;;;4935951;29;20035;-82
2023/06/23 13:45:37;;;;;;;3.78;2.00;;;29.90;36.70;;;;;;4918658;29;20034;-84
2023/06/23 13:48:03;;;;;;;4.00;2.05;;;29.90;36.20;;;;;;4933512;29;20059;-83
2023/06/23 13:50:29;;;;;;;3.70;2.03;;;29.90;37.80;;;;;;4935606;29;20114;-84
2023/06/23 13:52:55;;;;;;;3.97;1.90;;;29.90;37.40;;;;;;4919638;29;20111;-82
2023/06/23 13:55:20;;;;;;;3.47;2.05;;;29.90;35.40;;;;;;4925300;29;20035;-83
2023/06/23 13:57:46;;;;;;;3.90;2.10;;;29.80;35.20;;;;;;4924321;29;20032;-84
2023/06/23 14:00:12;;;;;;;3.47;1.90;;;29.80;36.60;;;;;;4934438;29;20540;-84
2023/06/23 14:02:38;;;;;;;3.90;1.63;;;29.90;39.00;;;;;;4923513;29;20062;-81
2023/06/23 14:05:04;;;;;;;3.65;2.00;;;29.90;36.60;;;;;;4931660;29;20024;-82
2023/06/23 14:07:30;;;;;;;3.85;1.83;;;29.90;35.30;;;;;;4932720;29;20042;-81
2023/06/23 14:09:56;;;;;;;3.85;1.90;;;29.90;36.60;;;;;;4932831;29;20498;-82
2023/06/23 14:12:22;;;;;;;3.50;1.88;;;29.90;35.20;;;;;;4932177;29;20400;-81
2023/06/23 14:14:48;;;;;;;3.28;1.70;;;30.00;35.90;;;;;;4931828;29;20028;-83
2023/06/23 14:17:14;;;;;;;4.00;1.88;;;29.90;36.60;;;;;;4926571;29;20775;-82
2023/06/23 14:19:40;;;;;;;3.22;1.73;;;29.90;35.80;;;;;;4914378;29;20026;-81
2023/06/23 14:22:05;;;;;;;4.03;1.60;;;29.80;34.60;;;;;;4932057;29;20486;-82
2023/06/23 14:24:34;;;;;;;4.07;1.80;;;29.80;33.40;;;;;;4932499;29;20457;-80
2023/06/23 14:27:00;;;;;;;3.78;1.88;;;29.80;33.60;;;;;;4931788;29;20036;-83
2023/06/23 14:29:26;;;;;;;3.78;2.10;;;29.80;34.00;;;;;;4932181;29;20020;-85
2023/06/23 14:31:52;;;;;;;3.22;1.70;;;29.90;33.40;;;;;;4933383;29;20047;-85
2023/06/23 14:34:17;;;;;;;3.03;1.75;;;30.00;33.20;;;;;;4920542;29;20039;-83
2023/06/23 14:36:43;;;;;;;4.60;1.83;;;30.00;34.10;;;;;;4926109;29;20570;-85
2023/06/23 14:39:09;;;;;;;3.75;1.80;;;29.90;34.80;;;;;;4907869;29;20028;-86
2023/06/23 14:41:34;;;;;;;3.08;1.50;;;30.00;34.30;;;;;;4940739;29;20059;-86
2023/06/23 14:44:00;;;;;;;3.85;1.92;;;29.90;34.80;;;;;;4912292;29;20028;-91
2023/06/23 14:46:26;;;;;;;3.63;1.85;;;29.90;34.70;;;;;;4930921;29;20024;-82
2023/06/23 14:48:52;;;;;;;3.30;1.67;;;29.90;34.50;;;;;;4934354;29;20027;-87
2023/06/23 14:51:18;;;;;;;3.10;1.77;;;30.00;34.60;;;;;;4935245;29;20058;-84
2023/06/23 14:53:44;;;;;;;3.20;1.80;;;30.00;36.10;;;;;;4938210;29;20024;-90
2023/06/23 14:56:12;;;;;;;4.13;1.75;;;29.90;35.20;;;;;;4922843;29;20028;-86
2023/06/23 14:58:38;;;;;;;4.18;1.70;;;29.80;34.60;;;;;;4939002;29;20034;-85
2023/06/23 15:01:03;;;;;;;3.90;1.80;;;29.80;34.80;;;;;;4940283;29;20027;-86
2023/06/23 15:03:29;;;;;;;3.33;1.70;;;29.90;34.90;;;;;;4943309;29;20034;-87
2023/06/23 15:05:55;;;;;;;3.50;1.88;;;29.90;34.70;;;;;;4922087;29;20032;-87
2023/06/23 15:08:23;;;;;;;4.65;2.45;;;29.80;33.60;;;;;;4919985;29;20100;-89
2023/06/23 15:10:51;;;;;;;3.67;1.88;;;29.90;35.70;;;;;;4926659;29;20032;-87
2023/06/23 15:13:17;;;;;;;3.80;1.90;;;30.00;34.20;;;;;;4939429;29;20034;-88
2023/06/23 15:15:43;;;;;;;4.45;1.90;;;30.10;34.90;;;;;;4923753;29;20032;-83
2023/06/23 15:18:09;;;;;;;3.72;1.92;;;30.00;34.00;;;;;;4938200;29;20111;-84
2023/06/23 15:20:34;;;;;;;2.63;1.45;;;30.00;34.50;;;;;;4933110;29;20116;-87
2023/06/23 15:23:01;;;;;;;4.22;1.70;;;30.10;34.00;;;;;;4903672;29;20060;-87
2023/06/23 15:25:27;;;;;;;3.40;1.80;;;30.00;33.00;;;;;;4920970;29;20035;-86
2023/06/23 15:27:52;;;;;;;3.15;1.63;;;30.00;32.70;;;;;;4920974;29;20032;-87
2023/06/23 15:30:18;;;;;;;3.80;1.75;;;30.00;34.00;;;;;;4922759;29;20495;-88
2023/06/23 15:32:44;;;;;;;3.92;1.60;;;29.90;33.60;;;;;;4923350;29;20104;-83
2023/06/23 15:35:10;;;;;;;3.72;1.77;;;29.90;35.00;;;;;;4939276;29;20035;-84
2023/06/23 15:37:40;;;;;;;4.63;1.90;;;29.80;35.30;;;;;;4939818;29;20502;-89
2023/06/23 15:40:10;;;;;;;3.55;1.67;;;29.80;34.60;;;;;;4934215;29;20433;-82
2023/06/23 15:42:36;;;;;;;2.95;1.60;;;29.80;34.60;;;;;;4940357;29;20027;-87
2023/06/23 15:45:03;;;;;;;3.00;1.70;;;29.90;35.00;;;;;;4916572;29;20100;-86
2023/06/23 15:47:28;;;;;;;3.72;1.60;;;29.90;34.20;;;;;;4939825;29;20020;-85
2023/06/23 15:49:54;;;;;;;3.40;1.77;;;29.90;33.80;;;;;;4934517;29;20042;-87
2023/06/23 15:52:20;;;;;;;3.67;1.70;;;29.90;34.80;;;;;;4937129;29;20038;-88
2023/06/23 15:54:49;;;;;;;2.95;1.63;;;29.90;33.80;;;;;;4932457;29;20047;-89
2023/06/23 15:57:15;;;;;;;3.08;1.73;;;29.90;34.50;;;;;;4934023;29;20095;-93
2023/06/23 15:59:41;;;;;;;3.40;1.80;;;29.90;33.40;;;;;;4903891;29;20151;-88
2023/06/23 16:02:07;;;;;;;3.38;1.77;;;29.80;33.70;;;;;;4934959;29;20062;-91
2023/06/23 16:04:32;;;;;;;3.38;1.65;;;29.80;33.30;;;;;;4944900;28;20027;-92
2023/06/23 16:06:58;;;;;;;3.70;1.98;;;29.80;34.20;;;;;;4937549;29;20368;-90
2023/06/23 16:09:25;;;;;;;3.67;1.73;;;29.80;34.80;;;;;;4938173;29;20058;-90
2023/06/23 16:11:54;;;;;;;4.15;1.73;;;29.80;34.50;;;;;;4924000;29;20028;-85
2023/06/23 16:14:20;;;;;;;3.55;1.73;;;29.70;34.10;;;;;;4928929;29;20035;-90
2023/06/23 16:16:45;;;;;;;4.07;1.80;;;29.80;33.50;;;;;;4938394;29;20401;-88
2023/06/23 16:19:11;;;;;;;4.00;1.70;;;29.80;34.40;;;;;;4938829;29;20046;-91
2023/06/23 16:21:39;;;;;;;2.95;1.67;;;29.80;33.70;;;;;;4938042;29;20019;-87
2023/06/23 16:24:05;;;;;;;3.40;1.65;;;29.80;32.60;;;;;;4938468;29;20028;-90
2023/06/23 16:26:31;;;;;;;3.60;1.67;;;29.80;34.00;;;;;;4920916;29;20045;-86
2023/06/23 16:28:57;;;;;;;3.55;2.20;;;29.80;34.20;;;;;;4937853;29;20043;-79
2023/06/23 16:31:27;;;;;;;3.28;1.73;;;29.70;34.40;;;;;;4938104;29;20079;-85
2023/06/23 16:33:53;;;;;;;4.10;1.75;;;29.60;35.00;;;;;;4921137;29;20035;-79
2023/06/23 16:36:20;;;;;;;3.83;2.10;;;29.60;34.70;;;;;;4930491;29;20032;-86
2023/06/23 16:39:04;;;;;;;2.95;1.60;;;29.70;34.70;;;;;;4934701;29;20032;-84
2023/06/23 16:41:29;;;;;;;3.50;1.80;;;29.70;35.10;;;;;;4938254;29;20084;-83
2023/06/23 16:43:55;;;;;;;3.30;1.83;;;29.60;34.20;;;;;;4936650;29;20066;-78
2023/06/23 16:46:21;;;;;;;3.60;1.80;;;29.60;34.10;;;;;;4920877;29;20087;-76
2023/06/23 16:48:48;;;;;;;3.42;1.80;;;29.60;34.60;;;;;;4935884;29;20035;-78
2023/06/23 16:51:14;;;;;;;3.88;1.70;;;29.70;34.60;;;;;;4933763;29;20073;-84
2023/06/23 16:53:40;;;;;;;3.33;1.70;;;29.60;34.60;;;;;;4935627;29;20517;-82
2023/06/23 16:56:06;;;;;;;3.78;2.17;;;29.60;34.60;;;;;;4936180;29;20528;-82
2023/06/23 16:58:35;;;;;;;3.45;1.80;;;29.60;33.60;;;;;;4937395;29;20080;-82
2023/06/23 17:01:01;;;;;;;3.72;1.83;;;29.60;34.10;;;;;;4918215;29;20032;-82
2023/06/23 17:03:27;;;;;;;3.33;1.67;;;29.50;34.10;;;;;;4926569;29;20031;-82
2023/06/23 17:05:52;;;;;;;3.38;1.92;;;29.50;34.30;;;;;;4935390;29;20016;-82
2023/06/23 17:08:18;;;;;;;3.47;1.95;;;29.40;34.00;;;;;;4935131;29;20050;-82
2023/06/23 17:10:44;;;;;;;3.38;1.70;;;29.40;35.00;;;;;;4923268;29;20047;-82
2023/06/23 17:13:09;;;;;;;3.22;1.70;;;29.40;35.00;;;;;;4937486;29;20383;-82
2023/06/23 17:15:35;;;;;;;4.40;2.15;;;29.40;34.00;;;;;;4925118;29;20048;-82
2023/06/23 17:18:01;;;;;;;4.05;1.90;;;29.30;34.80;;;;;;4918882;29;20506;-82